createdAt,value
2018-07-19T00:00:36.705Z,93.00
2018-07-19T00:03:04.874Z,93.10
2018-07-19T00:08:01.004Z,93.40
2018-07-19T00:10:29.137Z,93.60
2018-07-19T00:12:57.250Z,93.60
2018-07-19T00:15:25.390Z,93.80
2018-07-19T00:17:53.561Z,93.60
2018-07-19T00:20:21.721Z,93.60
2018-07-19T00:25:17.799Z,93.30
2018-07-19T00:27:45.966Z,93.50
2018-07-19T00:30:14.118Z,94.00
2018-07-19T00:32:42.302Z,94.10
2018-07-19T00:37:38.341Z,94.00
2018-07-19T00:40:06.493Z,93.40
2018-07-19T00:42:34.675Z,93.60
2018-07-19T00:45:02.806Z,93.70
2018-07-19T00:47:30.947Z,93.30
2018-07-19T00:49:59.083Z,93.10
2018-07-19T00:52:27.243Z,93.40
2018-07-19T00:54:55.381Z,93.60
2018-07-19T00:57:23.521Z,93.50
2018-07-19T00:59:51.714Z,93.70
2018-07-19T01:02:19.926Z,93.50
2018-07-19T01:07:16.094Z,93.90
2018-07-19T01:09:44.250Z,93.90
2018-07-19T01:12:12.459Z,93.60
2018-07-19T01:14:40.654Z,93.70
2018-07-19T01:17:08.815Z,93.30
2018-07-19T01:19:36.999Z,93.30
2018-07-19T01:22:05.168Z,93.50
2018-07-19T01:24:33.382Z,93.50
2018-07-19T01:27:01.614Z,93.50
2018-07-19T01:29:29.807Z,93.40
2018-07-19T01:31:57.997Z,93.90
2018-07-19T01:36:54.150Z,93.70
2018-07-19T01:39:22.317Z,93.60
2018-07-19T01:42:29.046Z,93.80
2018-07-19T01:47:25.157Z,93.60
2018-07-19T01:49:53.393Z,93.80
2018-07-19T01:52:21.594Z,93.80
2018-07-19T01:54:49.734Z,93.80
2018-07-19T01:57:18.642Z,93.80
2018-07-19T01:59:47.446Z,93.90
2018-07-19T02:02:15.605Z,94.00
2018-07-19T02:04:43.978Z,94.20
2018-07-19T02:07:12.142Z,94.20
2018-07-19T02:09:41.301Z,94.40
2018-07-19T02:12:09.580Z,94.30
2018-07-19T02:14:37.702Z,94.10
2018-07-19T02:17:06.086Z,94.40
2018-07-19T02:19:34.214Z,94.50
2018-07-19T02:22:02.378Z,94.60
2018-07-19T02:24:30.558Z,94.50
2018-07-19T02:26:58.682Z,94.50
2018-07-19T02:29:26.809Z,94.80
2018-07-19T02:31:54.946Z,94.80
2018-07-19T02:34:23.086Z,94.60
2018-07-19T02:36:51.210Z,94.70
2018-07-19T02:39:19.370Z,94.90
2018-07-19T02:41:47.499Z,95.20
2018-07-19T02:44:15.653Z,94.90
2018-07-19T02:46:44.755Z,95.00
2018-07-19T02:49:13.221Z,95.00
2018-07-19T02:51:42.330Z,94.90
2018-07-19T02:54:10.806Z,95.00
2018-07-19T02:56:38.931Z,94.90
2018-07-19T02:59:07.069Z,95.00
2018-07-19T03:01:35.206Z,95.10
2018-07-19T03:04:03.358Z,95.10
2018-07-19T03:06:31.524Z,95.00
2018-07-19T03:08:59.646Z,95.20
2018-07-19T03:11:27.758Z,95.50
2018-07-19T03:13:55.910Z,95.50
2018-07-19T03:16:24.174Z,95.60
2018-07-19T03:18:52.326Z,95.90
2018-07-19T03:21:20.701Z,95.70
2018-07-19T03:23:48.839Z,95.70
2018-07-19T03:28:44.988Z,95.20
2018-07-19T03:31:13.206Z,95.80
2018-07-19T03:33:41.290Z,95.40
2018-07-19T03:36:09.458Z,95.50
2018-07-19T03:38:37.630Z,95.30
2018-07-19T03:41:06.133Z,95.60
2018-07-19T03:43:34.268Z,95.80
2018-07-19T03:46:02.410Z,95.60
2018-07-19T03:48:30.583Z,95.70
2018-07-19T03:50:58.703Z,95.70
2018-07-19T03:53:26.817Z,95.60
2018-07-19T03:55:54.942Z,95.40
2018-07-19T04:00:51.116Z,95.70
2018-07-19T04:03:19.226Z,95.80
2018-07-19T04:05:47.455Z,95.80
2018-07-19T04:08:16.186Z,95.90
2018-07-19T04:10:44.346Z,95.90
2018-07-19T04:13:12.519Z,95.80
2018-07-19T04:15:40.632Z,96.10
2018-07-19T04:18:08.761Z,96.10
2018-07-19T04:20:36.903Z,96.30
2018-07-19T04:23:05.023Z,96.30
2018-07-19T04:25:33.178Z,96.90
2018-07-19T04:28:01.311Z,96.80
2018-07-19T04:30:29.424Z,96.50
2018-07-19T04:32:57.557Z,96.60
2018-07-19T04:35:25.666Z,96.70
2018-07-19T04:37:53.810Z,96.30
2018-07-19T04:40:21.917Z,96.80
2018-07-19T04:42:50.088Z,96.70
2018-07-19T04:45:18.205Z,96.90
2018-07-19T04:47:46.325Z,96.70
2018-07-19T04:50:14.453Z,96.50
2018-07-19T04:52:42.585Z,96.50
2018-07-19T04:55:10.699Z,96.60
2018-07-19T04:57:38.824Z,96.70
2018-07-19T05:00:06.949Z,96.70
2018-07-19T05:02:35.116Z,96.40
2018-07-19T05:05:03.236Z,96.70
2018-07-19T05:07:31.363Z,96.20
2018-07-19T05:09:59.487Z,96.20
2018-07-19T05:12:27.608Z,95.90
2018-07-19T05:14:55.748Z,95.80
2018-07-19T05:17:23.908Z,95.80
2018-07-19T05:19:52.037Z,96.10
2018-07-19T05:22:20.159Z,95.90
2018-07-19T05:24:48.282Z,95.60
2018-07-19T05:27:16.406Z,96.00
2018-07-19T05:29:44.537Z,96.00
2018-07-19T05:32:12.649Z,96.40
2018-07-19T05:34:40.833Z,96.00
2018-07-19T05:37:08.893Z,96.30
2018-07-19T05:39:37.029Z,95.80
2018-07-19T05:42:05.209Z,96.30
2018-07-19T05:44:33.285Z,95.60
2018-07-19T05:47:01.410Z,95.60
2018-07-19T05:49:29.526Z,95.60
2018-07-19T05:51:57.683Z,96.00
2018-07-19T05:54:25.812Z,95.50
2018-07-19T05:56:53.944Z,95.60
2018-07-19T05:59:22.063Z,96.00
2018-07-19T06:01:50.218Z,95.70
2018-07-19T06:04:18.479Z,95.40
2018-07-19T06:06:46.684Z,95.40
2018-07-19T06:09:14.947Z,96.00
2018-07-19T06:11:43.110Z,96.20
2018-07-19T06:14:11.249Z,96.10
2018-07-19T06:16:39.418Z,96.10
2018-07-19T06:19:07.554Z,96.20
2018-07-19T06:21:35.759Z,96.00
2018-07-19T06:24:03.931Z,95.90
2018-07-19T06:26:32.106Z,95.50
2018-07-19T06:29:00.292Z,95.60
2018-07-19T06:31:28.514Z,95.50
2018-07-19T06:33:56.617Z,95.50
2018-07-19T06:36:24.775Z,95.50
2018-07-19T06:38:52.946Z,94.20
2018-07-19T06:41:21.126Z,94.20
2018-07-19T06:43:49.311Z,93.00
2018-07-19T06:46:18.971Z,93.20
2018-07-19T06:48:47.126Z,93.30
2018-07-19T06:51:17.111Z,93.00
2018-07-19T06:53:45.318Z,93.60
2018-07-19T06:56:13.453Z,93.50
2018-07-19T06:58:41.602Z,93.70
2018-07-19T07:01:09.762Z,94.10
2018-07-19T07:03:38.083Z,92.80
2018-07-19T07:06:06.400Z,92.70
2018-07-19T07:08:34.573Z,92.80
2018-07-19T07:11:02.726Z,93.60
2018-07-19T07:13:30.897Z,92.70
2018-07-19T07:15:59.106Z,93.90
2018-07-19T07:18:27.249Z,92.90
2018-07-19T07:20:55.383Z,92.70
2018-07-19T07:23:23.543Z,93.10
2018-07-19T07:25:52.942Z,93.00
2018-07-19T07:28:22.503Z,94.30
2018-07-19T07:30:50.618Z,93.80
2018-07-19T07:33:19.290Z,93.00
2018-07-19T07:35:48.191Z,93.00
2018-07-19T07:38:17.280Z,93.50
2018-07-19T07:40:45.477Z,94.40
2018-07-19T07:43:13.611Z,94.10
2018-07-19T07:45:42.399Z,93.40
2018-07-19T07:48:10.545Z,93.80
2018-07-19T07:50:38.690Z,92.50
2018-07-19T07:53:06.878Z,92.00
2018-07-19T07:55:35.065Z,92.20
2018-07-19T07:58:03.202Z,91.50
2018-07-19T08:00:31.546Z,90.90
2018-07-19T08:02:59.826Z,90.60
2018-07-19T08:05:28.008Z,91.30
2018-07-19T08:07:56.184Z,91.10
2018-07-19T08:10:24.341Z,91.60
2018-07-19T08:12:52.517Z,90.80
2018-07-19T08:15:20.775Z,91.00
2018-07-19T08:17:48.914Z,92.00
2018-07-19T08:20:17.061Z,91.80
2018-07-19T08:22:45.214Z,91.50
2018-07-19T08:25:13.382Z,91.60
2018-07-19T08:27:41.531Z,91.20
2018-07-19T08:30:09.675Z,91.20
2018-07-19T08:32:37.844Z,92.20
2018-07-19T08:35:06.233Z,92.30
2018-07-19T08:37:34.380Z,91.10
2018-07-19T08:40:02.535Z,91.30
2018-07-19T08:42:30.830Z,91.70
2018-07-19T08:47:26.954Z,90.90
2018-07-19T08:49:55.126Z,91.00
2018-07-19T08:52:23.323Z,90.70
2018-07-19T08:54:51.993Z,91.00
2018-07-19T08:57:20.139Z,91.10
2018-07-19T08:59:48.274Z,91.10
2018-07-19T09:02:16.447Z,91.30
2018-07-19T09:04:44.601Z,90.40
2018-07-19T09:07:12.746Z,90.60
2018-07-19T09:09:40.887Z,91.00
2018-07-19T09:12:09.039Z,90.90
2018-07-19T09:14:37.207Z,90.90
2018-07-19T09:17:05.655Z,90.10
2018-07-19T09:19:33.865Z,88.60
2018-07-19T09:22:01.971Z,88.10
2018-07-19T09:24:30.115Z,88.50
2018-07-19T09:26:58.253Z,88.00
2018-07-19T09:29:26.395Z,88.30
2018-07-19T09:31:54.553Z,88.80
2018-07-19T09:34:22.718Z,90.30
2018-07-19T09:36:50.850Z,85.60
2018-07-19T09:39:18.998Z,87.00
2018-07-19T09:41:47.165Z,87.60
2018-07-19T09:44:15.417Z,88.10
2018-07-19T09:46:43.651Z,88.10
2018-07-19T09:49:11.790Z,87.60
2018-07-19T09:51:39.954Z,86.80
2018-07-19T09:54:08.112Z,88.20
2018-07-19T09:56:36.242Z,88.60
2018-07-19T09:59:04.402Z,88.40
2018-07-19T10:01:32.567Z,88.80
2018-07-19T10:04:00.707Z,88.80
2018-07-19T10:06:28.851Z,85.40
2018-07-19T10:08:56.998Z,86.20
2018-07-19T10:11:25.750Z,84.50
2018-07-19T10:13:53.921Z,85.70
2018-07-19T10:16:22.061Z,84.80
2018-07-19T10:18:50.203Z,86.30
2018-07-19T10:21:18.394Z,82.50
2018-07-19T10:23:46.521Z,82.20
2018-07-19T10:26:14.690Z,84.80
2018-07-19T10:28:42.859Z,82.70
2018-07-19T10:31:10.966Z,84.50
2018-07-19T10:33:39.115Z,85.80
2018-07-19T10:36:08.237Z,84.90
2018-07-19T10:38:36.441Z,85.70
2018-07-19T10:41:04.590Z,86.70
2018-07-19T10:43:32.746Z,87.10
2018-07-19T10:46:00.909Z,83.40
2018-07-19T10:48:29.029Z,84.30
2018-07-19T10:50:57.174Z,83.20
2018-07-19T10:53:25.330Z,85.10
2018-07-19T10:55:53.488Z,87.90
2018-07-19T10:58:21.622Z,83.60
2018-07-19T11:00:49.750Z,86.50
2018-07-19T11:03:17.869Z,87.40
2018-07-19T11:05:45.999Z,86.80
2018-07-19T11:08:14.161Z,82.30
2018-07-19T11:10:42.313Z,84.00
2018-07-19T11:13:10.442Z,88.90
2018-07-19T11:15:38.682Z,88.90
2018-07-19T11:18:06.826Z,84.70
2018-07-19T11:20:34.937Z,87.00
2018-07-19T11:23:03.098Z,86.20
2018-07-19T11:25:31.212Z,85.10
2018-07-19T11:27:59.337Z,82.90
2018-07-19T11:30:27.446Z,85.20
2018-07-19T11:32:55.582Z,86.00
2018-07-19T11:35:23.751Z,84.50
2018-07-19T11:37:51.871Z,81.90
2018-07-19T11:40:19.992Z,83.20
2018-07-19T11:42:48.102Z,82.00
2018-07-19T11:45:16.230Z,80.50
2018-07-19T11:47:44.361Z,82.00
2018-07-19T11:50:12.511Z,84.90
2018-07-19T11:52:40.637Z,83.60
2018-07-19T11:55:08.850Z,83.60
2018-07-19T11:57:36.991Z,83.90
2018-07-19T12:00:05.847Z,84.40
2018-07-19T12:02:33.983Z,84.30
2018-07-19T12:05:02.175Z,83.40
2018-07-19T12:07:30.423Z,80.00
2018-07-19T12:09:58.578Z,80.70
2018-07-19T12:12:26.702Z,81.30
2018-07-19T12:14:54.826Z,77.60
2018-07-19T12:17:22.991Z,75.20
2018-07-19T12:19:51.178Z,75.60
2018-07-19T12:22:19.302Z,74.10
2018-07-19T12:24:47.436Z,74.40
2018-07-19T12:27:15.639Z,75.30
2018-07-19T12:29:43.886Z,75.40
2018-07-19T12:32:11.996Z,75.70
2018-07-19T12:34:40.126Z,77.80
2018-07-19T12:37:11.378Z,77.50
2018-07-19T12:39:58.860Z,76.20
2018-07-19T12:42:28.174Z,79.80
2018-07-19T12:44:56.310Z,75.10
2018-07-19T12:47:24.435Z,75.10
2018-07-19T12:49:52.655Z,77.80
2018-07-19T12:52:20.794Z,79.60
2018-07-19T12:54:48.919Z,78.50
2018-07-19T12:57:17.043Z,83.30
2018-07-19T12:59:45.206Z,78.20
2018-07-19T13:02:13.423Z,79.50
2018-07-19T13:04:41.560Z,77.00
2018-07-19T13:07:09.710Z,77.60
2018-07-19T13:09:37.858Z,77.90
2018-07-19T13:12:06.043Z,79.80
2018-07-19T13:14:34.206Z,80.00
2018-07-19T13:17:02.366Z,77.90
2018-07-19T13:19:30.502Z,76.30
2018-07-19T13:21:58.701Z,74.60
2018-07-19T13:24:26.810Z,74.70
2018-07-19T13:26:54.982Z,77.10
2018-07-19T13:29:23.114Z,77.30
2018-07-19T13:31:51.254Z,72.80
2018-07-19T13:34:19.407Z,72.20
2018-07-19T13:36:47.636Z,74.50
2018-07-19T13:39:15.671Z,75.60
2018-07-19T13:41:43.789Z,75.90
2018-07-19T13:44:11.916Z,74.70
2018-07-19T13:46:40.046Z,73.90
2018-07-19T13:49:08.310Z,74.80
2018-07-19T13:51:36.434Z,73.90
2018-07-19T13:54:25.086Z,71.70
2018-07-19T13:56:53.211Z,74.80
2018-07-19T13:59:21.328Z,70.80
2018-07-19T14:01:49.478Z,72.00
2018-07-19T14:04:17.973Z,72.10
2018-07-19T14:06:46.114Z,72.20
2018-07-19T14:09:15.215Z,73.30
2018-07-19T14:11:43.362Z,73.70
2018-07-19T14:14:11.533Z,71.90
2018-07-19T14:16:39.702Z,72.90
2018-07-19T14:19:08.047Z,71.30
2018-07-19T14:21:36.185Z,72.30
2018-07-19T14:24:04.335Z,70.90
2018-07-19T14:26:32.627Z,72.40
2018-07-19T14:29:00.782Z,72.70
2018-07-19T14:31:28.915Z,71.20
2018-07-19T14:33:57.081Z,71.20
2018-07-19T14:36:25.267Z,69.60
2018-07-19T14:38:53.438Z,71.90
2018-07-19T14:41:21.578Z,70.00
2018-07-19T14:43:49.762Z,70.30
2018-07-19T14:46:17.906Z,70.20
2018-07-19T14:48:46.095Z,71.90
2018-07-19T14:51:14.239Z,70.60
2018-07-19T14:53:42.382Z,72.10
2018-07-19T14:56:10.802Z,70.70
2018-07-19T14:58:38.964Z,70.60
2018-07-19T15:01:07.269Z,70.40
2018-07-19T15:03:35.391Z,71.50
2018-07-19T15:06:03.498Z,70.40
2018-07-19T15:08:31.620Z,72.30
2018-07-19T15:10:59.733Z,75.50
2018-07-19T15:13:27.885Z,73.70
2018-07-19T15:15:56.010Z,73.80
2018-07-19T15:18:24.158Z,75.00
2018-07-19T15:20:52.305Z,77.00
2018-07-19T15:23:20.422Z,76.90
2018-07-19T15:25:48.551Z,77.10
2018-07-19T15:28:16.658Z,73.60
2018-07-19T15:30:44.790Z,73.90
2018-07-19T15:33:12.967Z,75.70
2018-07-19T15:35:41.146Z,73.30
2018-07-19T15:38:09.282Z,72.20
2018-07-19T15:40:37.402Z,72.00
2018-07-19T15:43:05.541Z,73.20
2018-07-19T15:45:33.670Z,78.10
2018-07-19T15:48:01.787Z,76.40
2018-07-19T15:50:29.901Z,73.90
2018-07-19T15:52:58.058Z,71.40
2018-07-19T15:55:26.330Z,73.80
2018-07-19T15:57:54.346Z,76.10
2018-07-19T16:00:22.537Z,78.30
2018-07-19T16:02:50.710Z,80.50
2018-07-19T16:05:18.861Z,76.00
2018-07-19T16:07:47.004Z,77.50
2018-07-19T16:10:15.129Z,74.50
2018-07-19T16:12:43.262Z,72.00
2018-07-19T16:15:11.390Z,70.70
2018-07-19T16:17:39.510Z,70.80
2018-07-19T16:20:07.630Z,72.50
2018-07-19T16:22:35.762Z,72.10
2018-07-19T16:25:03.906Z,71.80
2018-07-19T16:27:32.022Z,72.30
2018-07-19T16:30:00.128Z,71.20
2018-07-19T16:32:28.270Z,71.10
2018-07-19T16:34:56.359Z,73.60
2018-07-19T16:37:24.501Z,73.80
2018-07-19T16:39:52.601Z,70.60
2018-07-19T16:42:20.721Z,72.80
2018-07-19T16:44:48.851Z,72.80
2018-07-19T16:47:16.982Z,72.00
2018-07-19T16:49:45.106Z,74.50
2018-07-19T16:52:13.254Z,73.60
2018-07-19T16:54:41.360Z,75.40
2018-07-19T16:57:09.579Z,74.60
2018-07-19T16:59:37.713Z,74.80
2018-07-19T17:02:06.029Z,73.70
2018-07-19T17:04:34.146Z,72.10
2018-07-19T17:07:02.295Z,72.40
2018-07-19T17:09:30.464Z,71.90
2018-07-19T17:11:58.627Z,71.70
2018-07-19T17:14:26.738Z,73.30
2018-07-19T17:16:54.855Z,76.60
2018-07-19T17:19:22.998Z,76.70
2018-07-19T17:21:51.097Z,72.10
2018-07-19T17:24:19.218Z,72.90
2018-07-19T17:26:47.337Z,73.70
2018-07-19T17:29:15.457Z,74.50
2018-07-19T17:31:43.587Z,78.90
2018-07-19T17:34:11.705Z,78.20
2018-07-19T17:36:39.823Z,78.20
2018-07-19T17:39:09.622Z,76.70
2018-07-19T17:41:37.733Z,76.70
2018-07-19T17:44:05.963Z,80.70
2018-07-19T17:46:34.066Z,79.90
2018-07-19T17:49:02.198Z,79.10
2018-07-19T17:51:30.330Z,78.00
2018-07-19T17:53:58.562Z,78.50
2018-07-19T17:56:26.687Z,78.80
2018-07-19T17:58:54.809Z,78.70
2018-07-19T18:01:22.941Z,79.50
2018-07-19T18:03:51.048Z,80.10
2018-07-19T18:06:19.169Z,80.40
2018-07-19T18:08:47.273Z,80.30
2018-07-19T18:11:15.394Z,80.70
2018-07-19T18:13:43.502Z,79.90
2018-07-19T18:16:11.625Z,80.90
2018-07-19T18:18:39.754Z,81.70
2018-07-19T18:23:35.868Z,82.00
2018-07-19T18:26:03.985Z,82.50
2018-07-19T18:28:32.102Z,82.50
2018-07-19T18:31:00.226Z,83.20
2018-07-19T18:33:28.350Z,82.90
2018-07-19T18:36:01.493Z,83.10
2018-07-19T18:38:30.039Z,83.10
2018-07-19T18:40:58.183Z,83.70
2018-07-19T18:43:26.318Z,84.00
2018-07-19T18:45:54.434Z,84.00
2018-07-19T18:50:56.047Z,84.20
2018-07-19T18:53:24.166Z,85.00
2018-07-19T18:55:52.325Z,84.80
2018-07-19T18:58:20.447Z,85.20
2018-07-19T19:00:48.630Z,85.30
2018-07-19T19:03:16.775Z,85.10
2018-07-19T19:05:44.911Z,85.60
2018-07-19T19:08:13.057Z,86.00
2018-07-19T19:10:41.191Z,85.80
2018-07-19T19:13:09.358Z,85.70
2018-07-19T19:15:37.527Z,85.60
2018-07-19T19:18:06.791Z,86.80
2018-07-19T19:20:34.934Z,87.60
2018-07-19T19:23:03.079Z,86.10
2018-07-19T19:25:31.246Z,87.30
2018-07-19T19:27:59.482Z,87.10
2018-07-19T19:30:27.638Z,88.30
2018-07-19T19:32:55.833Z,89.30
2018-07-19T19:35:24.016Z,89.90
2018-07-19T19:37:52.194Z,89.60
2018-07-19T19:40:20.402Z,90.30
2018-07-19T19:42:48.575Z,89.10
2018-07-19T19:45:16.722Z,89.30
2018-07-19T19:47:44.940Z,89.50
2018-07-19T19:50:13.190Z,90.30
2018-07-19T19:52:41.361Z,90.30
2018-07-19T19:57:37.428Z,90.10
2018-07-19T20:00:05.655Z,90.00
2018-07-19T20:02:33.842Z,88.90
2018-07-19T20:05:02.055Z,88.10
2018-07-19T20:07:30.190Z,88.40
2018-07-19T20:09:58.374Z,87.90
2018-07-19T20:12:26.601Z,88.70
2018-07-19T20:17:22.710Z,89.60
2018-07-19T20:19:50.937Z,90.30
2018-07-19T20:22:19.053Z,90.90
2018-07-19T20:24:47.210Z,91.40
2018-07-19T20:27:15.346Z,91.10
2018-07-19T20:29:43.523Z,90.10
2018-07-19T20:32:11.662Z,90.40
2018-07-19T20:34:39.813Z,90.30
2018-07-19T20:37:07.978Z,89.70
2018-07-19T20:39:36.138Z,89.90
2018-07-19T20:42:04.312Z,90.10
2018-07-19T20:44:32.650Z,90.00
2018-07-19T20:47:00.802Z,90.10
2018-07-19T20:49:28.986Z,90.00
2018-07-19T20:51:57.166Z,90.20
2018-07-19T20:54:25.350Z,90.10
2018-07-19T20:56:53.495Z,90.10
2018-07-19T20:59:21.643Z,90.10
2018-07-19T21:04:17.992Z,90.30
2018-07-19T21:06:46.314Z,90.60
2018-07-19T21:09:14.434Z,90.40
2018-07-19T21:11:42.622Z,90.70
2018-07-19T21:14:11.174Z,90.40
2018-07-19T21:16:39.386Z,90.50
2018-07-19T21:19:07.519Z,90.20
2018-07-19T21:21:35.641Z,90.20
2018-07-19T21:24:03.766Z,90.30
2018-07-19T21:26:31.946Z,90.40
2018-07-19T21:29:00.082Z,90.50
2018-07-19T21:31:28.226Z,90.40
2018-07-19T21:33:56.388Z,90.70
2018-07-19T21:36:24.519Z,90.80
2018-07-19T21:38:52.733Z,91.00
2018-07-19T21:41:20.849Z,90.90
2018-07-19T21:43:49.005Z,91.20
2018-07-19T21:46:17.130Z,91.20
2018-07-19T21:48:45.247Z,91.00
2018-07-19T21:51:13.390Z,91.10
2018-07-19T21:53:42.281Z,91.30
2018-07-19T21:56:10.471Z,91.10
2018-07-19T21:58:38.562Z,91.10
2018-07-19T22:01:11.631Z,91.20
2018-07-19T22:03:40.146Z,91.00
2018-07-19T22:06:09.006Z,90.90
2018-07-19T22:08:37.241Z,91.20
2018-07-19T22:11:05.385Z,91.30
2018-07-19T22:13:33.514Z,91.60
2018-07-19T22:16:01.643Z,91.60
2018-07-19T22:18:29.771Z,91.60
2018-07-19T22:20:57.899Z,91.50
2018-07-19T22:23:26.035Z,91.40
2018-07-19T22:25:54.145Z,91.60
2018-07-19T22:28:22.321Z,91.60
2018-07-19T22:30:50.435Z,91.70
2018-07-19T22:33:18.564Z,91.80
2018-07-19T22:35:46.686Z,91.80
2018-07-19T22:38:14.827Z,91.90
2018-07-19T22:40:42.945Z,92.10
2018-07-19T22:43:11.111Z,92.00
2018-07-19T22:45:39.312Z,92.00
2018-07-19T22:48:07.406Z,92.10
2018-07-19T22:50:35.587Z,92.10
2018-07-19T22:53:03.755Z,92.20
2018-07-19T22:55:31.877Z,92.30
2018-07-19T22:58:00.024Z,92.40
2018-07-19T23:00:28.145Z,92.60
2018-07-19T23:02:56.279Z,92.60
2018-07-19T23:05:24.399Z,92.70
2018-07-19T23:07:52.530Z,92.80
2018-07-19T23:10:20.660Z,93.00
2018-07-19T23:12:48.786Z,93.00
2018-07-19T23:15:17.057Z,93.00
2018-07-19T23:17:45.204Z,92.90
2018-07-19T23:20:13.318Z,92.80
2018-07-19T23:22:41.741Z,92.90
2018-07-19T23:25:10.725Z,93.00
2018-07-19T23:27:38.839Z,93.00
2018-07-19T23:30:07.003Z,93.00
2018-07-19T23:32:35.140Z,93.10
2018-07-19T23:35:03.289Z,92.90
2018-07-19T23:37:34.837Z,93.00
2018-07-19T23:40:13.246Z,93.00
2018-07-19T23:42:45.538Z,93.30
2018-07-19T23:45:19.825Z,93.40
2018-07-19T23:47:47.965Z,93.40
2018-07-19T23:50:16.113Z,93.60
2018-07-19T23:52:44.234Z,93.70
2018-07-19T23:55:12.363Z,93.90
2018-07-19T23:57:40.491Z,94.00
